Salem, South Dakota
Current Conditions -  °F | °C
As of 7:35 AM on Thursday 23 Oct 2014 (Local Time) from KMDS Reporting Station
Clear Clear  
Wind Chill: 37°   Ceiling: Unl
Heat Index: 41°   Visibility: 10mi
Dew Point: 41°   Wind: 6mph
Humidity: 100%   Direction: 250°WSW
Pressure: 30"   Gusts: NA
Location:  43.72°N, 97.39°W
Report Text: KMDS 231235Z AUTO 25005KT 10SM CLR 05/05 A3000 RMK AO2
Loading
Personal Weather Stations






























Interactive Weather Map
Tropical Storm Tracking
New forecast layout! Learn more

10-Day Weather Forecast

Advertisements
Track Severe Weather on mobile